sensor_id;sensor_type;location;lat;lon;timestamp;P1;durP1;ratioP1;P2;durP2;ratioP2
25948;SDS011;13961;51.178;4.448;2023-12-20T00:01:21;12.15;;;3.10;;
25948;SDS011;13961;51.178;4.448;2023-12-20T00:03:47;18.77;;;3.35;;
25948;SDS011;13961;51.178;4.448;2023-12-20T00:06:13;16.75;;;3.05;;
25948;SDS011;13961;51.178;4.448;2023-12-20T00:08:38;14.50;;;3.47;;
25948;SDS011;13961;51.178;4.448;2023-12-20T00:11:04;13.32;;;2.60;;
25948;SDS011;13961;51.178;4.448;2023-12-20T00:13:30;9.93;;;2.53;;
25948;SDS011;13961;51.178;4.448;2023-12-20T00:15:55;15.98;;;3.03;;
25948;SDS011;13961;51.178;4.448;2023-12-20T00:18:21;13.85;;;2.17;;
25948;SDS011;13961;51.178;4.448;2023-12-20T00:20:46;12.75;;;2.15;;
25948;SDS011;13961;51.178;4.448;2023-12-20T00:23:12;12.55;;;2.45;;
25948;SDS011;13961;51.178;4.448;2023-12-20T00:25:38;19.13;;;2.75;;
25948;SDS011;13961;51.178;4.448;2023-12-20T00:28:03;17.25;;;2.70;;
25948;SDS011;13961;51.178;4.448;2023-12-20T00:30:29;20.55;;;2.50;;
25948;SDS011;13961;51.178;4.448;2023-12-20T00:32:55;10.70;;;2.55;;
25948;SDS011;13961;51.178;4.448;2023-12-20T00:35:21;13.52;;;2.78;;
25948;SDS011;13961;51.178;4.448;2023-12-20T00:37:46;15.63;;;2.78;;
25948;SDS011;13961;51.178;4.448;2023-12-20T00:40:12;13.15;;;2.20;;
25948;SDS011;13961;51.178;4.448;2023-12-20T00:42:38;12.48;;;2.65;;
25948;SDS011;13961;51.178;4.448;2023-12-20T00:45:04;20.60;;;3.13;;
25948;SDS011;13961;51.178;4.448;2023-12-20T00:47:30;15.73;;;3.85;;
25948;SDS011;13961;51.178;4.448;2023-12-20T00:49:57;9.43;;;2.72;;
25948;SDS011;13961;51.178;4.448;2023-12-20T00:52:23;13.73;;;2.85;;
25948;SDS011;13961;51.178;4.448;2023-12-20T00:54:49;13.10;;;2.85;;
25948;SDS011;13961;51.178;4.448;2023-12-20T00:57:14;18.83;;;2.95;;
25948;SDS011;13961;51.178;4.448;2023-12-20T00:59:40;23.48;;;3.15;;
25948;SDS011;13961;51.178;4.448;2023-12-20T01:02:06;18.02;;;3.33;;
25948;SDS011;13961;51.178;4.448;2023-12-20T01:04:31;16.42;;;3.28;;
25948;SDS011;13961;51.178;4.448;2023-12-20T01:06:57;15.20;;;3.10;;
25948;SDS011;13961;51.178;4.448;2023-12-20T01:09:23;21.42;;;3.08;;
25948;SDS011;13961;51.178;4.448;2023-12-20T01:11:51;19.42;;;3.28;;
25948;SDS011;13961;51.178;4.448;2023-12-20T01:14:17;17.50;;;2.78;;
25948;SDS011;13961;51.178;4.448;2023-12-20T01:16:43;17.98;;;3.50;;
25948;SDS011;13961;51.178;4.448;2023-12-20T01:19:08;11.60;;;2.92;;
25948;SDS011;13961;51.178;4.448;2023-12-20T01:21:34;16.90;;;3.33;;
25948;SDS011;13961;51.178;4.448;2023-12-20T01:23:59;19.17;;;3.28;;
25948;SDS011;13961;51.178;4.448;2023-12-20T01:26:25;15.45;;;3.30;;
25948;SDS011;13961;51.178;4.448;2023-12-20T01:28:51;11.63;;;3.00;;
25948;SDS011;13961;51.178;4.448;2023-12-20T01:31:16;18.17;;;3.55;;
25948;SDS011;13961;51.178;4.448;2023-12-20T01:33:42;13.02;;;3.22;;
25948;SDS011;13961;51.178;4.448;2023-12-20T01:36:07;20.10;;;3.65;;
25948;SDS011;13961;51.178;4.448;2023-12-20T01:38:34;14.60;;;3.10;;
25948;SDS011;13961;51.178;4.448;2023-12-20T01:40:59;17.58;;;3.35;;
25948;SDS011;13961;51.178;4.448;2023-12-20T01:43:25;19.05;;;2.95;;
25948;SDS011;13961;51.178;4.448;2023-12-20T01:45:51;20.30;;;3.10;;
25948;SDS011;13961;51.178;4.448;2023-12-20T01:48:17;14.40;;;3.10;;
25948;SDS011;13961;51.178;4.448;2023-12-20T01:50:44;13.30;;;2.70;;
25948;SDS011;13961;51.178;4.448;2023-12-20T01:53:11;15.80;;;3.40;;
25948;SDS011;13961;51.178;4.448;2023-12-20T01:55:39;16.55;;;3.40;;
25948;SDS011;13961;51.178;4.448;2023-12-20T01:58:08;14.73;;;3.28;;
25948;SDS011;13961;51.178;4.448;2023-12-20T02:00:36;18.90;;;4.18;;
25948;SDS011;13961;51.178;4.448;2023-12-20T02:03:02;18.40;;;4.18;;
25948;SDS011;13961;51.178;4.448;2023-12-20T02:05:32;13.10;;;4.20;;
25948;SDS011;13961;51.178;4.448;2023-12-20T02:07:58;19.30;;;4.80;;
25948;SDS011;13961;51.178;4.448;2023-12-20T02:10:24;15.80;;;4.63;;
25948;SDS011;13961;51.178;4.448;2023-12-20T02:12:51;17.25;;;4.30;;
25948;SDS011;13961;51.178;4.448;2023-12-20T02:15:16;17.10;;;5.00;;
25948;SDS011;13961;51.178;4.448;2023-12-20T02:17:42;18.75;;;5.13;;
25948;SDS011;13961;51.178;4.448;2023-12-20T02:20:09;21.38;;;4.70;;
25948;SDS011;13961;51.178;4.448;2023-12-20T02:22:35;21.35;;;5.22;;
25948;SDS011;13961;51.178;4.448;2023-12-20T02:25:00;18.63;;;4.53;;
25948;SDS011;13961;51.178;4.448;2023-12-20T02:27:26;16.83;;;3.92;;
25948;SDS011;13961;51.178;4.448;2023-12-20T02:29:54;21.50;;;5.10;;
25948;SDS011;13961;51.178;4.448;2023-12-20T02:32:20;11.60;;;4.22;;
25948;SDS011;13961;51.178;4.448;2023-12-20T02:34:47;23.13;;;4.07;;
25948;SDS011;13961;51.178;4.448;2023-12-20T02:37:13;19.77;;;4.10;;
25948;SDS011;13961;51.178;4.448;2023-12-20T02:39:39;20.08;;;4.07;;
25948;SDS011;13961;51.178;4.448;2023-12-20T02:42:05;22.13;;;4.32;;
25948;SDS011;13961;51.178;4.448;2023-12-20T02:44:31;18.05;;;4.28;;
25948;SDS011;13961;51.178;4.448;2023-12-20T02:46:57;24.05;;;4.30;;
25948;SDS011;13961;51.178;4.448;2023-12-20T02:49:22;12.90;;;3.80;;
25948;SDS011;13961;51.178;4.448;2023-12-20T02:51:48;21.77;;;4.28;;
25948;SDS011;13961;51.178;4.448;2023-12-20T02:54:14;12.23;;;3.58;;
25948;SDS011;13961;51.178;4.448;2023-12-20T02:56:40;17.45;;;3.65;;
25948;SDS011;13961;51.178;4.448;2023-12-20T02:59:05;16.92;;;4.38;;
25948;SDS011;13961;51.178;4.448;2023-12-20T03:01:33;17.55;;;4.18;;
25948;SDS011;13961;51.178;4.448;2023-12-20T03:03:59;21.13;;;3.78;;
25948;SDS011;13961;51.178;4.448;2023-12-20T03:06:25;13.15;;;3.53;;
25948;SDS011;13961;51.178;4.448;2023-12-20T03:08:51;16.20;;;3.30;;
25948;SDS011;13961;51.178;4.448;2023-12-20T03:11:17;14.40;;;3.90;;
25948;SDS011;13961;51.178;4.448;2023-12-20T03:13:43;16.05;;;3.60;;
25948;SDS011;13961;51.178;4.448;2023-12-20T03:16:09;18.65;;;3.90;;
25948;SDS011;13961;51.178;4.448;2023-12-20T03:18:36;20.52;;;4.18;;
25948;SDS011;13961;51.178;4.448;2023-12-20T03:21:01;19.27;;;3.67;;
25948;SDS011;13961;51.178;4.448;2023-12-20T03:23:28;15.23;;;4.05;;
25948;SDS011;13961;51.178;4.448;2023-12-20T03:25:55;19.42;;;3.67;;
25948;SDS011;13961;51.178;4.448;2023-12-20T03:28:21;19.25;;;3.78;;
25948;SDS011;13961;51.178;4.448;2023-12-20T03:30:48;19.85;;;3.83;;
25948;SDS011;13961;51.178;4.448;2023-12-20T03:33:14;14.75;;;3.63;;
25948;SDS011;13961;51.178;4.448;2023-12-20T03:35:40;19.02;;;3.40;;
25948;SDS011;13961;51.178;4.448;2023-12-20T03:38:06;19.13;;;3.08;;
25948;SDS011;13961;51.178;4.448;2023-12-20T03:40:32;16.98;;;3.55;;
25948;SDS011;13961;51.178;4.448;2023-12-20T03:42:57;17.30;;;3.42;;
25948;SDS011;13961;51.178;4.448;2023-12-20T03:45:23;17.10;;;3.88;;
25948;SDS011;13961;51.178;4.448;2023-12-20T03:47:49;17.33;;;3.63;;
25948;SDS011;13961;51.178;4.448;2023-12-20T03:50:19;17.40;;;3.35;;
25948;SDS011;13961;51.178;4.448;2023-12-20T03:52:47;21.05;;;3.67;;
25948;SDS011;13961;51.178;4.448;2023-12-20T03:55:12;19.88;;;3.70;;
25948;SDS011;13961;51.178;4.448;2023-12-20T03:57:38;16.05;;;3.42;;
25948;SDS011;13961;51.178;4.448;2023-12-20T04:00:04;21.67;;;3.10;;
25948;SDS011;13961;51.178;4.448;2023-12-20T04:02:35;25.23;;;4.28;;
25948;SDS011;13961;51.178;4.448;2023-12-20T04:05:02;15.48;;;3.47;;
25948;SDS011;13961;51.178;4.448;2023-12-20T04:07:27;19.85;;;3.50;;
25948;SDS011;13961;51.178;4.448;2023-12-20T04:09:53;20.67;;;4.00;;
25948;SDS011;13961;51.178;4.448;2023-12-20T04:12:18;17.17;;;3.58;;
25948;SDS011;13961;51.178;4.448;2023-12-20T04:14:44;18.40;;;3.45;;
25948;SDS011;13961;51.178;4.448;2023-12-20T04:17:10;20.55;;;3.13;;
25948;SDS011;13961;51.178;4.448;2023-12-20T04:19:35;21.38;;;3.58;;
25948;SDS011;13961;51.178;4.448;2023-12-20T04:22:01;21.85;;;3.70;;
25948;SDS011;13961;51.178;4.448;2023-12-20T04:24:27;17.92;;;3.15;;
25948;SDS011;13961;51.178;4.448;2023-12-20T04:26:52;22.73;;;3.95;;
25948;SDS011;13961;51.178;4.448;2023-12-20T04:29:18;18.45;;;4.32;;
25948;SDS011;13961;51.178;4.448;2023-12-20T04:31:44;16.77;;;4.18;;
25948;SDS011;13961;51.178;4.448;2023-12-20T04:34:10;17.08;;;3.88;;
25948;SDS011;13961;51.178;4.448;2023-12-20T04:36:35;14.73;;;3.42;;
25948;SDS011;13961;51.178;4.448;2023-12-20T04:39:01;19.30;;;3.88;;
25948;SDS011;13961;51.178;4.448;2023-12-20T04:41:28;19.67;;;3.50;;
25948;SDS011;13961;51.178;4.448;2023-12-20T04:43:53;17.95;;;3.65;;
25948;SDS011;13961;51.178;4.448;2023-12-20T04:46:19;27.70;;;3.88;;
25948;SDS011;13961;51.178;4.448;2023-12-20T04:48:45;20.02;;;3.35;;
25948;SDS011;13961;51.178;4.448;2023-12-20T04:51:10;16.90;;;3.25;;
25948;SDS011;13961;51.178;4.448;2023-12-20T04:53:36;23.60;;;3.95;;
25948;SDS011;13961;51.178;4.448;2023-12-20T04:56:02;19.42;;;3.47;;
25948;SDS011;13961;51.178;4.448;2023-12-20T04:58:28;21.48;;;3.72;;
25948;SDS011;13961;51.178;4.448;2023-12-20T05:00:54;23.17;;;3.80;;
25948;SDS011;13961;51.178;4.448;2023-12-20T05:03:19;20.90;;;3.90;;
25948;SDS011;13961;51.178;4.448;2023-12-20T05:05:45;19.00;;;3.30;;
25948;SDS011;13961;51.178;4.448;2023-12-20T05:08:11;23.25;;;3.97;;
25948;SDS011;13961;51.178;4.448;2023-12-20T05:10:37;21.42;;;3.45;;
25948;SDS011;13961;51.178;4.448;2023-12-20T05:13:02;22.60;;;3.90;;
25948;SDS011;13961;51.178;4.448;2023-12-20T05:15:28;16.98;;;3.38;;
25948;SDS011;13961;51.178;4.448;2023-12-20T05:17:54;20.17;;;3.70;;
25948;SDS011;13961;51.178;4.448;2023-12-20T05:20:19;16.45;;;3.55;;
25948;SDS011;13961;51.178;4.448;2023-12-20T05:22:45;22.35;;;4.07;;
25948;SDS011;13961;51.178;4.448;2023-12-20T05:25:12;14.63;;;4.03;;
25948;SDS011;13961;51.178;4.448;2023-12-20T05:27:38;21.23;;;4.20;;
25948;SDS011;13961;51.178;4.448;2023-12-20T05:30:03;25.60;;;3.75;;
25948;SDS011;13961;51.178;4.448;2023-12-20T05:32:29;21.30;;;3.90;;
25948;SDS011;13961;51.178;4.448;2023-12-20T05:34:56;22.77;;;4.10;;
25948;SDS011;13961;51.178;4.448;2023-12-20T05:37:21;23.60;;;4.13;;
25948;SDS011;13961;51.178;4.448;2023-12-20T05:39:47;23.40;;;3.83;;
25948;SDS011;13961;51.178;4.448;2023-12-20T05:42:13;17.38;;;3.90;;
25948;SDS011;13961;51.178;4.448;2023-12-20T05:44:39;14.90;;;3.50;;
25948;SDS011;13961;51.178;4.448;2023-12-20T05:47:04;23.00;;;4.28;;
25948;SDS011;13961;51.178;4.448;2023-12-20T05:49:30;20.17;;;3.28;;
25948;SDS011;13961;51.178;4.448;2023-12-20T05:51:56;17.05;;;3.33;;
25948;SDS011;13961;51.178;4.448;2023-12-20T05:54:22;27.10;;;4.13;;
25948;SDS011;13961;51.178;4.448;2023-12-20T05:56:48;23.58;;;3.47;;
25948;SDS011;13961;51.178;4.448;2023-12-20T05:59:14;25.08;;;3.40;;
25948;SDS011;13961;51.178;4.448;2023-12-20T06:01:39;18.20;;;3.53;;
25948;SDS011;13961;51.178;4.448;2023-12-20T06:04:05;16.27;;;3.28;;
25948;SDS011;13961;51.178;4.448;2023-12-20T06:06:31;21.52;;;3.60;;
25948;SDS011;13961;51.178;4.448;2023-12-20T06:08:56;16.85;;;3.17;;
25948;SDS011;13961;51.178;4.448;2023-12-20T06:11:23;20.02;;;3.67;;
25948;SDS011;13961;51.178;4.448;2023-12-20T06:13:49;17.02;;;3.75;;
25948;SDS011;13961;51.178;4.448;2023-12-20T06:16:17;21.92;;;3.05;;
25948;SDS011;13961;51.178;4.448;2023-12-20T06:18:43;19.00;;;3.58;;
25948;SDS011;13961;51.178;4.448;2023-12-20T06:21:08;21.30;;;3.53;;
25948;SDS011;13961;51.178;4.448;2023-12-20T06:23:37;19.65;;;3.40;;
25948;SDS011;13961;51.178;4.448;2023-12-20T06:26:03;21.08;;;3.85;;
25948;SDS011;13961;51.178;4.448;2023-12-20T06:28:29;17.58;;;3.78;;
25948;SDS011;13961;51.178;4.448;2023-12-20T06:30:55;19.23;;;3.72;;
25948;SDS011;13961;51.178;4.448;2023-12-20T06:33:22;11.20;;;3.22;;
25948;SDS011;13961;51.178;4.448;2023-12-20T06:35:48;16.23;;;3.47;;
25948;SDS011;13961;51.178;4.448;2023-12-20T06:38:14;21.67;;;3.45;;
25948;SDS011;13961;51.178;4.448;2023-12-20T06:40:39;18.98;;;3.40;;
25948;SDS011;13961;51.178;4.448;2023-12-20T06:43:05;20.45;;;3.65;;
25948;SDS011;13961;51.178;4.448;2023-12-20T06:45:31;16.27;;;4.00;;
25948;SDS011;13961;51.178;4.448;2023-12-20T06:47:57;17.02;;;3.42;;
25948;SDS011;13961;51.178;4.448;2023-12-20T06:50:23;16.85;;;3.50;;
25948;SDS011;13961;51.178;4.448;2023-12-20T06:52:49;17.40;;;2.80;;
25948;SDS011;13961;51.178;4.448;2023-12-20T06:55:15;23.73;;;4.38;;
25948;SDS011;13961;51.178;4.448;2023-12-20T06:57:40;17.13;;;3.30;;
25948;SDS011;13961;51.178;4.448;2023-12-20T07:00:06;14.65;;;3.42;;
25948;SDS011;13961;51.178;4.448;2023-12-20T07:02:33;14.88;;;3.50;;
25948;SDS011;13961;51.178;4.448;2023-12-20T07:04:59;18.65;;;2.97;;
25948;SDS011;13961;51.178;4.448;2023-12-20T07:07:25;17.52;;;3.47;;
25948;SDS011;13961;51.178;4.448;2023-12-20T07:09:51;18.70;;;3.30;;
25948;SDS011;13961;51.178;4.448;2023-12-20T07:12:17;17.63;;;3.33;;
25948;SDS011;13961;51.178;4.448;2023-12-20T07:14:44;15.18;;;3.08;;
25948;SDS011;13961;51.178;4.448;2023-12-20T07:17:10;14.82;;;3.35;;
25948;SDS011;13961;51.178;4.448;2023-12-20T07:19:38;14.63;;;2.88;;
25948;SDS011;13961;51.178;4.448;2023-12-20T07:22:05;18.00;;;2.95;;
25948;SDS011;13961;51.178;4.448;2023-12-20T07:24:31;17.55;;;3.47;;
25948;SDS011;13961;51.178;4.448;2023-12-20T07:26:57;17.02;;;3.20;;
25948;SDS011;13961;51.178;4.448;2023-12-20T07:29:24;17.40;;;2.80;;
25948;SDS011;13961;51.178;4.448;2023-12-20T07:31:50;21.27;;;3.08;;
25948;SDS011;13961;51.178;4.448;2023-12-20T07:34:17;18.45;;;3.15;;
25948;SDS011;13961;51.178;4.448;2023-12-20T07:36:43;14.57;;;2.65;;
25948;SDS011;13961;51.178;4.448;2023-12-20T07:39:08;17.13;;;3.13;;
25948;SDS011;13961;51.178;4.448;2023-12-20T07:41:35;21.80;;;2.88;;
25948;SDS011;13961;51.178;4.448;2023-12-20T07:44:00;17.83;;;3.13;;
25948;SDS011;13961;51.178;4.448;2023-12-20T07:46:26;21.38;;;3.13;;
25948;SDS011;13961;51.178;4.448;2023-12-20T07:48:51;17.05;;;3.28;;
25948;SDS011;13961;51.178;4.448;2023-12-20T07:51:17;15.60;;;2.92;;
25948;SDS011;13961;51.178;4.448;2023-12-20T07:53:43;17.30;;;3.35;;
25948;SDS011;13961;51.178;4.448;2023-12-20T07:56:16;14.65;;;2.60;;
25948;SDS011;13961;51.178;4.448;2023-12-20T07:58:43;14.55;;;3.28;;
25948;SDS011;13961;51.178;4.448;2023-12-20T08:01:10;14.55;;;2.85;;
25948;SDS011;13961;51.178;4.448;2023-12-20T08:03:37;16.67;;;3.25;;
25948;SDS011;13961;51.178;4.448;2023-12-20T08:06:03;24.38;;;3.13;;
25948;SDS011;13961;51.178;4.448;2023-12-20T08:08:29;23.00;;;2.85;;
25948;SDS011;13961;51.178;4.448;2023-12-20T08:10:55;12.52;;;3.22;;
25948;SDS011;13961;51.178;4.448;2023-12-20T08:13:22;18.83;;;3.08;;
25948;SDS011;13961;51.178;4.448;2023-12-20T08:15:51;20.27;;;3.45;;
25948;SDS011;13961;51.178;4.448;2023-12-20T08:18:17;20.20;;;2.60;;
25948;SDS011;13961;51.178;4.448;2023-12-20T08:20:42;20.20;;;3.22;;
25948;SDS011;13961;51.178;4.448;2023-12-20T08:23:08;22.38;;;2.72;;
25948;SDS011;13961;51.178;4.448;2023-12-20T08:25:34;19.17;;;3.25;;
25948;SDS011;13961;51.178;4.448;2023-12-20T08:27:59;19.70;;;3.30;;
25948;SDS011;13961;51.178;4.448;2023-12-20T08:30:26;17.27;;;3.35;;
25948;SDS011;13961;51.178;4.448;2023-12-20T08:32:51;18.83;;;2.75;;
25948;SDS011;13961;51.178;4.448;2023-12-20T08:35:17;17.00;;;2.47;;
25948;SDS011;13961;51.178;4.448;2023-12-20T08:37:43;16.45;;;3.03;;
25948;SDS011;13961;51.178;4.448;2023-12-20T08:40:09;19.85;;;2.90;;
25948;SDS011;13961;51.178;4.448;2023-12-20T08:42:35;18.52;;;2.90;;
25948;SDS011;13961;51.178;4.448;2023-12-20T08:45:01;13.02;;;2.67;;
25948;SDS011;13961;51.178;4.448;2023-12-20T08:47:29;22.17;;;3.40;;
25948;SDS011;13961;51.178;4.448;2023-12-20T08:49:55;19.23;;;3.15;;
25948;SDS011;13961;51.178;4.448;2023-12-20T08:52:24;18.50;;;2.85;;
25948;SDS011;13961;51.178;4.448;2023-12-20T08:54:50;17.60;;;2.78;;
25948;SDS011;13961;51.178;4.448;2023-12-20T08:57:20;17.92;;;3.00;;
25948;SDS011;13961;51.178;4.448;2023-12-20T08:59:46;17.13;;;2.47;;
25948;SDS011;13961;51.178;4.448;2023-12-20T09:02:13;16.40;;;2.78;;
25948;SDS011;13961;51.178;4.448;2023-12-20T09:04:39;13.68;;;3.10;;
25948;SDS011;13961;51.178;4.448;2023-12-20T09:07:05;14.50;;;3.25;;
25948;SDS011;13961;51.178;4.448;2023-12-20T09:09:30;16.83;;;2.88;;
25948;SDS011;13961;51.178;4.448;2023-12-20T09:11:57;19.42;;;3.42;;
25948;SDS011;13961;51.178;4.448;2023-12-20T09:14:23;15.45;;;3.00;;
25948;SDS011;13961;51.178;4.448;2023-12-20T09:16:48;13.10;;;3.30;;
25948;SDS011;13961;51.178;4.448;2023-12-20T09:19:16;15.40;;;2.78;;
25948;SDS011;13961;51.178;4.448;2023-12-20T09:21:42;17.58;;;3.13;;
25948;SDS011;13961;51.178;4.448;2023-12-20T09:24:07;13.00;;;3.22;;
25948;SDS011;13961;51.178;4.448;2023-12-20T09:26:33;15.75;;;2.85;;
25948;SDS011;13961;51.178;4.448;2023-12-20T09:28:59;21.77;;;3.53;;
25948;SDS011;13961;51.178;4.448;2023-12-20T09:31:25;16.58;;;2.88;;
25948;SDS011;13961;51.178;4.448;2023-12-20T09:33:50;16.98;;;3.13;;
25948;SDS011;13961;51.178;4.448;2023-12-20T09:36:16;19.92;;;2.97;;
25948;SDS011;13961;51.178;4.448;2023-12-20T09:38:42;17.77;;;2.70;;
25948;SDS011;13961;51.178;4.448;2023-12-20T09:41:07;20.65;;;3.33;;
25948;SDS011;13961;51.178;4.448;2023-12-20T09:43:35;17.15;;;2.88;;
25948;SDS011;13961;51.178;4.448;2023-12-20T09:46:02;13.75;;;2.90;;
25948;SDS011;13961;51.178;4.448;2023-12-20T09:48:32;20.25;;;2.95;;
25948;SDS011;13961;51.178;4.448;2023-12-20T09:50:58;17.17;;;3.00;;
25948;SDS011;13961;51.178;4.448;2023-12-20T09:53:24;14.25;;;2.90;;
25948;SDS011;13961;51.178;4.448;2023-12-20T09:55:55;18.10;;;2.90;;
25948;SDS011;13961;51.178;4.448;2023-12-20T09:58:25;10.60;;;2.97;;
25948;SDS011;13961;51.178;4.448;2023-12-20T10:00:51;19.85;;;3.15;;
25948;SDS011;13961;51.178;4.448;2023-12-20T10:03:19;10.10;;;2.60;;
25948;SDS011;13961;51.178;4.448;2023-12-20T10:05:51;14.30;;;2.95;;
25948;SDS011;13961;51.178;4.448;2023-12-20T10:08:21;14.73;;;2.40;;
25948;SDS011;13961;51.178;4.448;2023-12-20T10:10:47;13.40;;;2.60;;
25948;SDS011;13961;51.178;4.448;2023-12-20T10:13:13;11.35;;;3.03;;
25948;SDS011;13961;51.178;4.448;2023-12-20T10:15:40;15.70;;;3.38;;
25948;SDS011;13961;51.178;4.448;2023-12-20T10:18:06;12.73;;;2.90;;
25948;SDS011;13961;51.178;4.448;2023-12-20T10:20:32;11.55;;;2.45;;
25948;SDS011;13961;51.178;4.448;2023-12-20T10:22:58;16.13;;;2.67;;
25948;SDS011;13961;51.178;4.448;2023-12-20T10:25:25;13.15;;;3.17;;
25948;SDS011;13961;51.178;4.448;2023-12-20T10:32:59;13.77;;;2.75;;
25948;SDS011;13961;51.178;4.448;2023-12-20T10:35:25;16.05;;;3.13;;
25948;SDS011;13961;51.178;4.448;2023-12-20T10:37:52;16.70;;;2.67;;
25948;SDS011;13961;51.178;4.448;2023-12-20T10:40:21;14.77;;;2.80;;
25948;SDS011;13961;51.178;4.448;2023-12-20T10:42:48;20.25;;;3.08;;
25948;SDS011;13961;51.178;4.448;2023-12-20T10:45:15;10.13;;;2.22;;
25948;SDS011;13961;51.178;4.448;2023-12-20T10:47:43;16.85;;;2.95;;
25948;SDS011;13961;51.178;4.448;2023-12-20T10:50:11;15.88;;;3.00;;
25948;SDS011;13961;51.178;4.448;2023-12-20T10:52:37;13.82;;;3.33;;
25948;SDS011;13961;51.178;4.448;2023-12-20T10:55:05;16.48;;;2.70;;
25948;SDS011;13961;51.178;4.448;2023-12-20T10:57:31;13.02;;;2.95;;
25948;SDS011;13961;51.178;4.448;2023-12-20T10:59:58;18.10;;;3.42;;
25948;SDS011;13961;51.178;4.448;2023-12-20T11:02:33;15.93;;;2.88;;
25948;SDS011;13961;51.178;4.448;2023-12-20T11:05:25;16.80;;;3.25;;
25948;SDS011;13961;51.178;4.448;2023-12-20T11:08:09;14.30;;;2.90;;
25948;SDS011;13961;51.178;4.448;2023-12-20T11:10:49;17.65;;;3.05;;
25948;SDS011;13961;51.178;4.448;2023-12-20T11:13:40;11.02;;;2.50;;
25948;SDS011;13961;51.178;4.448;2023-12-20T11:16:13;16.75;;;2.70;;
25948;SDS011;13961;51.178;4.448;2023-12-20T11:18:40;11.40;;;2.55;;
25948;SDS011;13961;51.178;4.448;2023-12-20T11:21:06;15.98;;;2.65;;
25948;SDS011;13961;51.178;4.448;2023-12-20T11:23:32;16.42;;;3.10;;
25948;SDS011;13961;51.178;4.448;2023-12-20T11:26:01;15.85;;;3.38;;
25948;SDS011;13961;51.178;4.448;2023-12-20T11:28:27;13.23;;;2.40;;
25948;SDS011;13961;51.178;4.448;2023-12-20T11:30:55;14.95;;;3.22;;
25948;SDS011;13961;51.178;4.448;2023-12-20T11:33:26;15.80;;;2.75;;
25948;SDS011;13961;51.178;4.448;2023-12-20T11:35:55;18.38;;;3.10;;
25948;SDS011;13961;51.178;4.448;2023-12-20T11:38:22;18.75;;;3.42;;
25948;SDS011;13961;51.178;4.448;2023-12-20T11:40:49;18.92;;;3.65;;
25948;SDS011;13961;51.178;4.448;2023-12-20T11:43:30;19.35;;;3.55;;
25948;SDS011;13961;51.178;4.448;2023-12-20T11:46:02;18.25;;;3.28;;
25948;SDS011;13961;51.178;4.448;2023-12-20T11:48:31;18.58;;;2.95;;
25948;SDS011;13961;51.178;4.448;2023-12-20T11:50:58;15.15;;;2.92;;
25948;SDS011;13961;51.178;4.448;2023-12-20T11:53:24;18.15;;;3.40;;
25948;SDS011;13961;51.178;4.448;2023-12-20T11:55:50;18.40;;;3.13;;
25948;SDS011;13961;51.178;4.448;2023-12-20T11:58:16;18.75;;;3.15;;
25948;SDS011;13961;51.178;4.448;2023-12-20T12:00:42;15.38;;;3.03;;
25948;SDS011;13961;51.178;4.448;2023-12-20T12:03:08;18.70;;;3.20;;
25948;SDS011;13961;51.178;4.448;2023-12-20T12:05:34;18.27;;;2.88;;
25948;SDS011;13961;51.178;4.448;2023-12-20T12:08:00;13.82;;;2.92;;
25948;SDS011;13961;51.178;4.448;2023-12-20T12:10:27;18.25;;;3.70;;
25948;SDS011;13961;51.178;4.448;2023-12-20T12:12:54;15.75;;;3.08;;
25948;SDS011;13961;51.178;4.448;2023-12-20T12:15:19;17.52;;;3.20;;
25948;SDS011;13961;51.178;4.448;2023-12-20T12:17:55;15.98;;;2.92;;
25948;SDS011;13961;51.178;4.448;2023-12-20T12:20:22;12.82;;;2.90;;
25948;SDS011;13961;51.178;4.448;2023-12-20T12:23:02;25.83;;;3.47;;
25948;SDS011;13961;51.178;4.448;2023-12-20T12:25:28;10.93;;;2.17;;
25948;SDS011;13961;51.178;4.448;2023-12-20T12:27:55;18.17;;;3.08;;
25948;SDS011;13961;51.178;4.448;2023-12-20T12:30:22;18.33;;;3.72;;
25948;SDS011;13961;51.178;4.448;2023-12-20T12:32:48;19.90;;;3.20;;
25948;SDS011;13961;51.178;4.448;2023-12-20T12:35:14;13.73;;;3.33;;
25948;SDS011;13961;51.178;4.448;2023-12-20T12:37:40;13.13;;;3.25;;
25948;SDS011;13961;51.178;4.448;2023-12-20T12:40:09;20.83;;;3.53;;
25948;SDS011;13961;51.178;4.448;2023-12-20T12:42:36;15.50;;;2.97;;
25948;SDS011;13961;51.178;4.448;2023-12-20T12:45:02;15.38;;;2.70;;
25948;SDS011;13961;51.178;4.448;2023-12-20T12:47:28;23.05;;;3.33;;
25948;SDS011;13961;51.178;4.448;2023-12-20T12:49:54;14.75;;;3.00;;
25948;SDS011;13961;51.178;4.448;2023-12-20T12:52:19;13.48;;;3.13;;
25948;SDS011;13961;51.178;4.448;2023-12-20T12:54:45;13.98;;;2.60;;
25948;SDS011;13961;51.178;4.448;2023-12-20T12:57:12;20.52;;;3.30;;
25948;SDS011;13961;51.178;4.448;2023-12-20T12:59:38;22.80;;;3.60;;
25948;SDS011;13961;51.178;4.448;2023-12-20T13:02:04;14.20;;;2.75;;
25948;SDS011;13961;51.178;4.448;2023-12-20T13:04:30;19.05;;;3.33;;
25948;SDS011;13961;51.178;4.448;2023-12-20T13:06:56;19.38;;;3.22;;
25948;SDS011;13961;51.178;4.448;2023-12-20T13:09:22;21.05;;;3.33;;
25948;SDS011;13961;51.178;4.448;2023-12-20T13:11:48;13.95;;;3.70;;
25948;SDS011;13961;51.178;4.448;2023-12-20T13:14:13;15.35;;;3.15;;
25948;SDS011;13961;51.178;4.448;2023-12-20T13:16:40;18.45;;;3.08;;
25948;SDS011;13961;51.178;4.448;2023-12-20T13:19:06;16.45;;;3.00;;
25948;SDS011;13961;51.178;4.448;2023-12-20T13:21:32;15.38;;;2.78;;
25948;SDS011;13961;51.178;4.448;2023-12-20T13:23:58;25.85;;;3.08;;
25948;SDS011;13961;51.178;4.448;2023-12-20T13:26:24;13.63;;;3.13;;
25948;SDS011;13961;51.178;4.448;2023-12-20T13:28:49;14.25;;;2.72;;
25948;SDS011;13961;51.178;4.448;2023-12-20T13:31:15;15.20;;;3.50;;
25948;SDS011;13961;51.178;4.448;2023-12-20T13:33:41;12.70;;;2.92;;
25948;SDS011;13961;51.178;4.448;2023-12-20T13:36:06;14.15;;;2.97;;
25948;SDS011;13961;51.178;4.448;2023-12-20T13:38:32;14.95;;;3.20;;
25948;SDS011;13961;51.178;4.448;2023-12-20T13:40:58;14.15;;;3.33;;
25948;SDS011;13961;51.178;4.448;2023-12-20T13:43:24;14.90;;;3.05;;
25948;SDS011;13961;51.178;4.448;2023-12-20T13:45:50;15.18;;;3.42;;
25948;SDS011;13961;51.178;4.448;2023-12-20T13:48:16;22.95;;;3.17;;
25948;SDS011;13961;51.178;4.448;2023-12-20T13:50:41;16.13;;;3.00;;
25948;SDS011;13961;51.178;4.448;2023-12-20T13:53:07;13.57;;;2.83;;
25948;SDS011;13961;51.178;4.448;2023-12-20T13:55:33;16.92;;;3.20;;
25948;SDS011;13961;51.178;4.448;2023-12-20T13:57:58;14.35;;;3.17;;
25948;SDS011;13961;51.178;4.448;2023-12-20T14:00:24;19.85;;;3.08;;
25948;SDS011;13961;51.178;4.448;2023-12-20T14:02:50;13.63;;;3.33;;
25948;SDS011;13961;51.178;4.448;2023-12-20T14:05:16;22.45;;;2.90;;
25948;SDS011;13961;51.178;4.448;2023-12-20T14:07:45;13.32;;;2.65;;
25948;SDS011;13961;51.178;4.448;2023-12-20T14:10:12;12.77;;;2.83;;
25948;SDS011;13961;51.178;4.448;2023-12-20T14:12:41;14.70;;;3.17;;
25948;SDS011;13961;51.178;4.448;2023-12-20T14:15:07;20.00;;;3.88;;
25948;SDS011;13961;51.178;4.448;2023-12-20T14:17:35;14.93;;;3.20;;
25948;SDS011;13961;51.178;4.448;2023-12-20T14:20:05;18.75;;;3.30;;
25948;SDS011;13961;51.178;4.448;2023-12-20T14:22:32;14.13;;;2.72;;
25948;SDS011;13961;51.178;4.448;2023-12-20T14:24:57;13.50;;;2.63;;
25948;SDS011;13961;51.178;4.448;2023-12-20T14:27:23;19.88;;;3.40;;
25948;SDS011;13961;51.178;4.448;2023-12-20T14:29:55;15.25;;;3.13;;
25948;SDS011;13961;51.178;4.448;2023-12-20T14:32:21;11.18;;;2.50;;
25948;SDS011;13961;51.178;4.448;2023-12-20T14:34:47;17.40;;;2.60;;
25948;SDS011;13961;51.178;4.448;2023-12-20T14:37:13;17.70;;;2.60;;